sensor_id;sensor_type;location;lat;lon;timestamp;P1;durP1;ratioP1;P2;durP2;ratioP2
18072;SDS011;9161;47.348;9.648;2023-05-07T00:04:41;1.63;;;0.90;;
18072;SDS011;9161;47.348;9.648;2023-05-07T00:09:44;1.27;;;1.00;;
18072;SDS011;9161;47.348;9.648;2023-05-07T00:14:46;0.97;;;0.70;;
18072;SDS011;9161;47.348;9.648;2023-05-07T00:19:50;1.90;;;0.70;;
18072;SDS011;9161;47.348;9.648;2023-05-07T00:24:52;3.30;;;1.20;;
18072;SDS011;9161;47.348;9.648;2023-05-07T00:29:55;3.30;;;0.80;;
18072;SDS011;9161;47.348;9.648;2023-05-07T00:34:58;2.00;;;0.90;;
18072;SDS011;9161;47.348;9.648;2023-05-07T00:40:00;1.47;;;0.80;;
18072;SDS011;9161;47.348;9.648;2023-05-07T00:45:05;1.23;;;0.90;;
18072;SDS011;9161;47.348;9.648;2023-05-07T00:50:10;1.10;;;0.77;;
18072;SDS011;9161;47.348;9.648;2023-05-07T00:55:13;2.33;;;0.80;;
18072;SDS011;9161;47.348;9.648;2023-05-07T01:00:15;1.97;;;0.80;;
18072;SDS011;9161;47.348;9.648;2023-05-07T01:05:20;2.23;;;0.90;;
18072;SDS011;9161;47.348;9.648;2023-05-07T01:10:25;2.07;;;0.70;;
18072;SDS011;9161;47.348;9.648;2023-05-07T01:15:28;0.90;;;0.70;;
18072;SDS011;9161;47.348;9.648;2023-05-07T01:20:31;6.00;;;1.53;;
18072;SDS011;9161;47.348;9.648;2023-05-07T01:25:35;3.70;;;0.70;;
18072;SDS011;9161;47.348;9.648;2023-05-07T01:30:37;1.07;;;0.60;;
18072;SDS011;9161;47.348;9.648;2023-05-07T01:35:43;2.47;;;0.70;;
18072;SDS011;9161;47.348;9.648;2023-05-07T01:40:49;1.83;;;0.80;;
18072;SDS011;9161;47.348;9.648;2023-05-07T01:45:52;1.33;;;0.80;;
18072;SDS011;9161;47.348;9.648;2023-05-07T01:50:55;2.00;;;0.80;;
18072;SDS011;9161;47.348;9.648;2023-05-07T01:55:58;3.63;;;0.83;;
18072;SDS011;9161;47.348;9.648;2023-05-07T02:01:01;1.20;;;0.77;;
18072;SDS011;9161;47.348;9.648;2023-05-07T02:06:03;4.53;;;1.30;;
18072;SDS011;9161;47.348;9.648;2023-05-07T02:11:07;1.90;;;0.90;;
18072;SDS011;9161;47.348;9.648;2023-05-07T02:16:08;3.40;;;1.27;;
18072;SDS011;9161;47.348;9.648;2023-05-07T02:21:11;2.37;;;1.40;;
18072;SDS011;9161;47.348;9.648;2023-05-07T02:26:15;2.53;;;1.20;;
18072;SDS011;9161;47.348;9.648;2023-05-07T02:31:17;1.70;;;1.00;;
18072;SDS011;9161;47.348;9.648;2023-05-07T02:36:19;1.87;;;1.40;;
18072;SDS011;9161;47.348;9.648;2023-05-07T02:41:22;4.40;;;1.50;;
18072;SDS011;9161;47.348;9.648;2023-05-07T02:46:24;2.47;;;1.53;;
18072;SDS011;9161;47.348;9.648;2023-05-07T02:51:26;1.93;;;1.10;;
18072;SDS011;9161;47.348;9.648;2023-05-07T02:56:30;2.40;;;1.00;;
18072;SDS011;9161;47.348;9.648;2023-05-07T03:01:31;1.70;;;1.00;;
18072;SDS011;9161;47.348;9.648;2023-05-07T03:06:33;2.33;;;1.00;;
18072;SDS011;9161;47.348;9.648;2023-05-07T03:11:37;1.67;;;1.20;;
18072;SDS011;9161;47.348;9.648;2023-05-07T03:16:39;1.73;;;1.13;;
18072;SDS011;9161;47.348;9.648;2023-05-07T03:21:41;2.73;;;1.10;;
18072;SDS011;9161;47.348;9.648;2023-05-07T03:26:44;2.30;;;1.30;;
18072;SDS011;9161;47.348;9.648;2023-05-07T03:31:46;2.73;;;0.90;;
18072;SDS011;9161;47.348;9.648;2023-05-07T03:36:49;1.10;;;0.83;;
18072;SDS011;9161;47.348;9.648;2023-05-07T03:41:52;1.87;;;0.80;;
18072;SDS011;9161;47.348;9.648;2023-05-07T03:46:54;2.67;;;0.83;;
18072;SDS011;9161;47.348;9.648;2023-05-07T03:51:56;0.87;;;0.70;;
18072;SDS011;9161;47.348;9.648;2023-05-07T03:57:00;1.03;;;0.70;;
18072;SDS011;9161;47.348;9.648;2023-05-07T04:02:02;1.77;;;1.00;;
18072;SDS011;9161;47.348;9.648;2023-05-07T04:07:04;2.43;;;1.10;;
18072;SDS011;9161;47.348;9.648;2023-05-07T04:12:08;1.90;;;0.70;;
18072;SDS011;9161;47.348;9.648;2023-05-07T04:17:10;2.00;;;1.00;;
18072;SDS011;9161;47.348;9.648;2023-05-07T04:22:12;3.23;;;0.97;;
18072;SDS011;9161;47.348;9.648;2023-05-07T04:27:16;4.23;;;1.40;;
18072;SDS011;9161;47.348;9.648;2023-05-07T04:32:18;2.83;;;1.40;;
18072;SDS011;9161;47.348;9.648;2023-05-07T04:37:20;4.57;;;1.23;;
18072;SDS011;9161;47.348;9.648;2023-05-07T04:42:23;1.73;;;1.20;;
18072;SDS011;9161;47.348;9.648;2023-05-07T04:47:25;1.73;;;1.00;;
18072;SDS011;9161;47.348;9.648;2023-05-07T04:52:27;7.37;;;1.47;;
18072;SDS011;9161;47.348;9.648;2023-05-07T04:57:30;2.43;;;1.10;;
18072;SDS011;9161;47.348;9.648;2023-05-07T05:02:32;3.13;;;1.13;;
18072;SDS011;9161;47.348;9.648;2023-05-07T05:07:34;2.70;;;1.47;;
18072;SDS011;9161;47.348;9.648;2023-05-07T05:12:37;3.63;;;1.60;;
18072;SDS011;9161;47.348;9.648;2023-05-07T05:17:39;3.60;;;1.80;;
18072;SDS011;9161;47.348;9.648;2023-05-07T05:22:41;1.97;;;1.40;;
18072;SDS011;9161;47.348;9.648;2023-05-07T05:27:45;3.63;;;1.53;;
18072;SDS011;9161;47.348;9.648;2023-05-07T05:32:48;2.33;;;1.43;;
18072;SDS011;9161;47.348;9.648;2023-05-07T05:37:50;3.47;;;1.63;;
18072;SDS011;9161;47.348;9.648;2023-05-07T05:42:54;1.30;;;1.20;;
18072;SDS011;9161;47.348;9.648;2023-05-07T05:47:56;4.97;;;1.53;;
18072;SDS011;9161;47.348;9.648;2023-05-07T05:52:58;5.23;;;2.20;;
18072;SDS011;9161;47.348;9.648;2023-05-07T05:58:02;2.43;;;1.33;;
18072;SDS011;9161;47.348;9.648;2023-05-07T06:03:04;2.60;;;1.30;;
18072;SDS011;9161;47.348;9.648;2023-05-07T06:08:06;2.00;;;1.37;;
18072;SDS011;9161;47.348;9.648;2023-05-07T06:13:10;3.40;;;1.33;;
18072;SDS011;9161;47.348;9.648;2023-05-07T06:18:12;1.47;;;1.07;;
18072;SDS011;9161;47.348;9.648;2023-05-07T06:23:15;1.93;;;1.30;;
18072;SDS011;9161;47.348;9.648;2023-05-07T06:28:18;1.10;;;0.70;;
18072;SDS011;9161;47.348;9.648;2023-05-07T06:33:20;2.20;;;0.93;;
18072;SDS011;9161;47.348;9.648;2023-05-07T06:38:22;1.20;;;0.70;;
18072;SDS011;9161;47.348;9.648;2023-05-07T06:43:26;1.57;;;0.70;;
18072;SDS011;9161;47.348;9.648;2023-05-07T06:48:28;1.37;;;0.77;;
18072;SDS011;9161;47.348;9.648;2023-05-07T06:53:30;1.90;;;0.77;;
18072;SDS011;9161;47.348;9.648;2023-05-07T06:58:33;0.90;;;0.60;;
18072;SDS011;9161;47.348;9.648;2023-05-07T07:03:35;1.77;;;1.10;;
18072;SDS011;9161;47.348;9.648;2023-05-07T07:08:37;2.73;;;1.07;;
18072;SDS011;9161;47.348;9.648;2023-05-07T07:13:41;1.33;;;0.90;;
18072;SDS011;9161;47.348;9.648;2023-05-07T07:18:43;11.93;;;5.40;;
18072;SDS011;9161;47.348;9.648;2023-05-07T07:23:45;3.37;;;1.53;;
18072;SDS011;9161;47.348;9.648;2023-05-07T07:28:48;6.83;;;2.67;;
18072;SDS011;9161;47.348;9.648;2023-05-07T07:33:51;1.87;;;0.53;;
18072;SDS011;9161;47.348;9.648;2023-05-07T07:38:53;2.20;;;0.60;;
18072;SDS011;9161;47.348;9.648;2023-05-07T07:43:56;2.60;;;0.70;;
18072;SDS011;9161;47.348;9.648;2023-05-07T07:48:59;2.37;;;1.17;;
18072;SDS011;9161;47.348;9.648;2023-05-07T07:54:00;3.63;;;1.57;;
18072;SDS011;9161;47.348;9.648;2023-05-07T07:59:04;2.27;;;1.50;;
18072;SDS011;9161;47.348;9.648;2023-05-07T08:04:06;0.67;;;0.60;;
18072;SDS011;9161;47.348;9.648;2023-05-07T08:09:08;5.47;;;0.73;;
18072;SDS011;9161;47.348;9.648;2023-05-07T08:14:12;1.97;;;1.03;;
18072;SDS011;9161;47.348;9.648;2023-05-07T08:19:16;0.70;;;0.60;;
18072;SDS011;9161;47.348;9.648;2023-05-07T08:24:18;2.20;;;0.80;;
18072;SDS011;9161;47.348;9.648;2023-05-07T08:29:21;1.40;;;1.00;;
18072;SDS011;9161;47.348;9.648;2023-05-07T08:34:23;2.80;;;0.90;;
18072;SDS011;9161;47.348;9.648;2023-05-07T08:39:25;0.95;;;0.70;;
18072;SDS011;9161;47.348;9.648;2023-05-07T08:44:29;2.63;;;1.33;;
18072;SDS011;9161;47.348;9.648;2023-05-07T08:49:35;1.75;;;0.70;;
18072;SDS011;9161;47.348;9.648;2023-05-07T08:54:37;5.47;;;0.70;;
18072;SDS011;9161;47.348;9.648;2023-05-07T08:59:41;1.20;;;0.73;;
18072;SDS011;9161;47.348;9.648;2023-05-07T09:04:43;1.20;;;0.82;;
18072;SDS011;9161;47.348;9.648;2023-05-07T09:09:46;1.55;;;0.75;;
18072;SDS011;9161;47.348;9.648;2023-05-07T09:14:50;1.65;;;0.70;;
18072;SDS011;9161;47.348;9.648;2023-05-07T09:19:53;1.25;;;0.88;;
18072;SDS011;9161;47.348;9.648;2023-05-07T09:24:55;2.60;;;0.90;;
18072;SDS011;9161;47.348;9.648;2023-05-07T09:29:59;1.85;;;1.58;;
18072;SDS011;9161;47.348;9.648;2023-05-07T09:35:08;1.67;;;0.90;;
18072;SDS011;9161;47.348;9.648;2023-05-07T09:40:20;2.30;;;0.70;;
18072;SDS011;9161;47.348;9.648;2023-05-07T09:45:26;2.90;;;0.90;;
18072;SDS011;9161;47.348;9.648;2023-05-07T09:50:29;1.25;;;0.80;;
18072;SDS011;9161;47.348;9.648;2023-05-07T09:55:36;2.30;;;0.80;;
18072;SDS011;9161;47.348;9.648;2023-05-07T10:00:41;3.88;;;1.80;;
18072;SDS011;9161;47.348;9.648;2023-05-07T10:05:43;1.27;;;0.90;;
18072;SDS011;9161;47.348;9.648;2023-05-07T10:10:47;1.10;;;0.85;;
18072;SDS011;9161;47.348;9.648;2023-05-07T10:15:52;1.58;;;0.63;;
18072;SDS011;9161;47.348;9.648;2023-05-07T10:20:56;1.90;;;0.60;;
18072;SDS011;9161;47.348;9.648;2023-05-07T10:26:03;1.42;;;0.70;;
18072;SDS011;9161;47.348;9.648;2023-05-07T10:31:10;1.13;;;0.60;;
18072;SDS011;9161;47.348;9.648;2023-05-07T10:36:20;1.85;;;0.80;;
18072;SDS011;9161;47.348;9.648;2023-05-07T10:41:23;3.72;;;0.80;;
18072;SDS011;9161;47.348;9.648;2023-05-07T10:46:27;0.80;;;0.75;;
18072;SDS011;9161;47.348;9.648;2023-05-07T10:51:32;1.85;;;0.85;;
18072;SDS011;9161;47.348;9.648;2023-05-07T10:56:35;1.48;;;0.77;;
18072;SDS011;9161;47.348;9.648;2023-05-07T11:01:52;1.25;;;0.80;;
18072;SDS011;9161;47.348;9.648;2023-05-07T11:17:55;2.70;;;0.90;;
18072;SDS011;9161;47.348;9.648;2023-05-07T11:22:59;4.22;;;1.50;;
18072;SDS011;9161;47.348;9.648;2023-05-07T11:28:05;2.42;;;1.02;;
18072;SDS011;9161;47.348;9.648;2023-05-07T11:33:11;2.08;;;0.90;;
18072;SDS011;9161;47.348;9.648;2023-05-07T11:38:13;2.70;;;0.82;;
18072;SDS011;9161;47.348;9.648;2023-05-07T11:43:16;1.58;;;0.82;;
18072;SDS011;9161;47.348;9.648;2023-05-07T11:48:20;1.80;;;0.80;;
18072;SDS011;9161;47.348;9.648;2023-05-07T11:53:24;1.52;;;0.80;;
18072;SDS011;9161;47.348;9.648;2023-05-07T11:58:27;1.80;;;1.10;;
18072;SDS011;9161;47.348;9.648;2023-05-07T12:03:30;4.85;;;1.33;;
18072;SDS011;9161;47.348;9.648;2023-05-07T12:08:36;4.38;;;0.90;;
18072;SDS011;9161;47.348;9.648;2023-05-07T12:13:38;2.03;;;0.80;;
18072;SDS011;9161;47.348;9.648;2023-05-07T12:18:42;3.80;;;1.30;;
18072;SDS011;9161;47.348;9.648;2023-05-07T12:23:45;1.80;;;0.90;;
18072;SDS011;9161;47.348;9.648;2023-05-07T12:28:47;3.45;;;1.17;;
18072;SDS011;9161;47.348;9.648;2023-05-07T12:33:51;3.60;;;0.80;;
18072;SDS011;9161;47.348;9.648;2023-05-07T12:38:53;3.67;;;0.80;;
18072;SDS011;9161;47.348;9.648;2023-05-07T12:43:56;1.30;;;1.00;;
18072;SDS011;9161;47.348;9.648;2023-05-07T12:49:00;2.25;;;0.80;;
18072;SDS011;9161;47.348;9.648;2023-05-07T12:54:02;1.10;;;0.80;;
18072;SDS011;9161;47.348;9.648;2023-05-07T12:59:04;3.40;;;1.00;;
18072;SDS011;9161;47.348;9.648;2023-05-07T13:04:08;1.80;;;0.88;;
18072;SDS011;9161;47.348;9.648;2023-05-07T13:09:10;1.27;;;1.00;;
18072;SDS011;9161;47.348;9.648;2023-05-07T13:14:12;1.25;;;0.93;;
18072;SDS011;9161;47.348;9.648;2023-05-07T13:19:16;2.30;;;1.08;;
18072;SDS011;9161;47.348;9.648;2023-05-07T13:24:18;1.08;;;0.80;;
18072;SDS011;9161;47.348;9.648;2023-05-07T13:29:20;3.63;;;1.20;;
18072;SDS011;9161;47.348;9.648;2023-05-07T13:34:29;2.78;;;1.15;;
18072;SDS011;9161;47.348;9.648;2023-05-07T13:39:31;3.17;;;1.40;;
18072;SDS011;9161;47.348;9.648;2023-05-07T13:44:33;1.33;;;1.00;;
18072;SDS011;9161;47.348;9.648;2023-05-07T13:49:37;1.90;;;1.20;;
18072;SDS011;9161;47.348;9.648;2023-05-07T13:54:39;1.30;;;1.20;;
18072;SDS011;9161;47.348;9.648;2023-05-07T13:59:41;2.85;;;1.48;;
18072;SDS011;9161;47.348;9.648;2023-05-07T14:04:44;3.72;;;1.67;;
18072;SDS011;9161;47.348;9.648;2023-05-07T14:09:46;3.35;;;1.50;;
18072;SDS011;9161;47.348;9.648;2023-05-07T14:14:49;6.50;;;1.50;;
18072;SDS011;9161;47.348;9.648;2023-05-07T14:19:52;2.50;;;1.40;;
18072;SDS011;9161;47.348;9.648;2023-05-07T14:24:54;3.80;;;1.80;;
18072;SDS011;9161;47.348;9.648;2023-05-07T14:30:13;2.50;;;1.50;;
18072;SDS011;9161;47.348;9.648;2023-05-07T14:35:18;2.95;;;1.65;;
18072;SDS011;9161;47.348;9.648;2023-05-07T14:40:20;2.65;;;1.55;;
18072;SDS011;9161;47.348;9.648;2023-05-07T14:45:22;3.13;;;1.92;;
18072;SDS011;9161;47.348;9.648;2023-05-07T14:50:27;4.35;;;1.92;;
18072;SDS011;9161;47.348;9.648;2023-05-07T14:55:29;5.10;;;1.80;;
18072;SDS011;9161;47.348;9.648;2023-05-07T15:00:34;3.08;;;1.90;;
18072;SDS011;9161;47.348;9.648;2023-05-07T15:05:38;6.45;;;2.10;;
18072;SDS011;9161;47.348;9.648;2023-05-07T15:10:41;4.57;;;2.40;;
18072;SDS011;9161;47.348;9.648;2023-05-07T15:15:44;5.10;;;1.92;;
18072;SDS011;9161;47.348;9.648;2023-05-07T15:20:47;2.88;;;2.20;;
18072;SDS011;9161;47.348;9.648;2023-05-07T15:25:49;5.30;;;2.50;;
18072;SDS011;9161;47.348;9.648;2023-05-07T15:30:51;3.83;;;2.40;;
18072;SDS011;9161;47.348;9.648;2023-05-07T15:35:56;6.45;;;2.25;;
18072;SDS011;9161;47.348;9.648;2023-05-07T15:40:59;2.63;;;2.25;;
18072;SDS011;9161;47.348;9.648;2023-05-07T15:46:03;3.25;;;2.30;;
18072;SDS011;9161;47.348;9.648;2023-05-07T15:51:07;3.53;;;2.22;;
18072;SDS011;9161;47.348;9.648;2023-05-07T15:56:10;4.30;;;2.10;;
18072;SDS011;9161;47.348;9.648;2023-05-07T16:01:13;4.70;;;2.22;;
18072;SDS011;9161;47.348;9.648;2023-05-07T16:06:18;6.32;;;2.40;;
18072;SDS011;9161;47.348;9.648;2023-05-07T16:11:21;3.75;;;2.50;;
18072;SDS011;9161;47.348;9.648;2023-05-07T16:16:24;4.93;;;3.05;;
18072;SDS011;9161;47.348;9.648;2023-05-07T16:21:31;5.20;;;3.08;;
18072;SDS011;9161;47.348;9.648;2023-05-07T16:26:35;4.95;;;3.22;;
18072;SDS011;9161;47.348;9.648;2023-05-07T16:31:37;4.63;;;3.10;;
18072;SDS011;9161;47.348;9.648;2023-05-07T16:36:41;5.87;;;2.90;;
18072;SDS011;9161;47.348;9.648;2023-05-07T16:41:44;6.67;;;3.00;;
18072;SDS011;9161;47.348;9.648;2023-05-07T16:46:49;7.80;;;2.97;;
18072;SDS011;9161;47.348;9.648;2023-05-07T16:51:54;6.60;;;3.17;;
18072;SDS011;9161;47.348;9.648;2023-05-07T16:56:57;5.47;;;3.20;;
18072;SDS011;9161;47.348;9.648;2023-05-07T17:02:00;6.83;;;4.23;;
18072;SDS011;9161;47.348;9.648;2023-05-07T17:07:05;5.53;;;3.20;;
18072;SDS011;9161;47.348;9.648;2023-05-07T17:12:07;6.77;;;3.20;;
18072;SDS011;9161;47.348;9.648;2023-05-07T17:17:10;2.53;;;1.13;;
18072;SDS011;9161;47.348;9.648;2023-05-07T17:22:15;2.43;;;1.10;;
18072;SDS011;9161;47.348;9.648;2023-05-07T17:27:20;3.37;;;1.30;;
18072;SDS011;9161;47.348;9.648;2023-05-07T17:32:31;3.67;;;1.17;;
18072;SDS011;9161;47.348;9.648;2023-05-07T17:37:36;2.50;;;1.27;;
18072;SDS011;9161;47.348;9.648;2023-05-07T17:42:39;2.10;;;1.10;;
18072;SDS011;9161;47.348;9.648;2023-05-07T17:47:41;7.80;;;1.43;;
18072;SDS011;9161;47.348;9.648;2023-05-07T17:52:46;6.80;;;1.57;;
18072;SDS011;9161;47.348;9.648;2023-05-07T17:57:49;3.63;;;1.40;;
18072;SDS011;9161;47.348;9.648;2023-05-07T18:02:52;10.37;;;2.20;;
18072;SDS011;9161;47.348;9.648;2023-05-07T18:07:56;4.73;;;1.87;;
18072;SDS011;9161;47.348;9.648;2023-05-07T18:12:59;4.47;;;2.00;;
18072;SDS011;9161;47.348;9.648;2023-05-07T18:18:02;6.13;;;1.80;;
18072;SDS011;9161;47.348;9.648;2023-05-07T18:23:07;6.30;;;1.83;;
18072;SDS011;9161;47.348;9.648;2023-05-07T18:28:10;6.50;;;2.80;;
18072;SDS011;9161;47.348;9.648;2023-05-07T18:33:13;3.97;;;2.00;;
18072;SDS011;9161;47.348;9.648;2023-05-07T18:38:20;4.23;;;1.97;;
18072;SDS011;9161;47.348;9.648;2023-05-07T18:43:23;5.83;;;2.10;;
18072;SDS011;9161;47.348;9.648;2023-05-07T18:48:27;9.87;;;2.93;;
18072;SDS011;9161;47.348;9.648;2023-05-07T18:53:31;8.63;;;2.87;;
18072;SDS011;9161;47.348;9.648;2023-05-07T18:58:34;3.53;;;1.90;;
18072;SDS011;9161;47.348;9.648;2023-05-07T19:03:37;4.80;;;1.90;;
18072;SDS011;9161;47.348;9.648;2023-05-07T19:08:41;4.20;;;1.90;;
18072;SDS011;9161;47.348;9.648;2023-05-07T19:14:01;6.47;;;1.93;;
18072;SDS011;9161;47.348;9.648;2023-05-07T19:19:17;6.93;;;2.40;;
18072;SDS011;9161;47.348;9.648;2023-05-07T19:31:04;5.10;;;2.47;;
18072;SDS011;9161;47.348;9.648;2023-05-07T19:36:31;4.30;;;2.50;;
18072;SDS011;9161;47.348;9.648;2023-05-07T19:42:01;3.60;;;2.37;;
18072;SDS011;9161;47.348;9.648;2023-05-07T19:47:59;4.83;;;2.80;;
18072;SDS011;9161;47.348;9.648;2023-05-07T19:53:37;5.43;;;3.10;;
18072;SDS011;9161;47.348;9.648;2023-05-07T19:59:28;5.63;;;2.93;;
18072;SDS011;9161;47.348;9.648;2023-05-07T20:05:31;5.23;;;3.13;;
18072;SDS011;9161;47.348;9.648;2023-05-07T20:11:16;6.43;;;3.20;;
18072;SDS011;9161;47.348;9.648;2023-05-07T20:16:32;6.27;;;3.17;;
18072;SDS011;9161;47.348;9.648;2023-05-07T20:21:50;7.00;;;2.97;;
18072;SDS011;9161;47.348;9.648;2023-05-07T20:27:16;4.37;;;3.20;;
18072;SDS011;9161;47.348;9.648;2023-05-07T20:32:45;5.00;;;2.90;;
18072;SDS011;9161;47.348;9.648;2023-05-07T20:38:11;10.07;;;3.27;;
18072;SDS011;9161;47.348;9.648;2023-05-07T20:43:37;6.73;;;3.30;;
18072;SDS011;9161;47.348;9.648;2023-05-07T20:49:08;4.37;;;2.97;;
18072;SDS011;9161;47.348;9.648;2023-05-07T20:54:39;6.17;;;3.30;;
18072;SDS011;9161;47.348;9.648;2023-05-07T21:00:21;4.90;;;3.57;;
18072;SDS011;9161;47.348;9.648;2023-05-07T21:05:41;5.43;;;3.43;;
18072;SDS011;9161;47.348;9.648;2023-05-07T21:11:04;7.00;;;4.00;;
18072;SDS011;9161;47.348;9.648;2023-05-07T21:16:30;7.57;;;4.53;;
18072;SDS011;9161;47.348;9.648;2023-05-07T21:21:40;8.13;;;4.67;;
18072;SDS011;9161;47.348;9.648;2023-05-07T21:26:44;8.47;;;4.30;;
18072;SDS011;9161;47.348;9.648;2023-05-07T21:31:47;6.10;;;4.87;;
18072;SDS011;9161;47.348;9.648;2023-05-07T21:36:49;9.33;;;4.70;;
18072;SDS011;9161;47.348;9.648;2023-05-07T21:41:52;7.00;;;4.13;;
18072;SDS011;9161;47.348;9.648;2023-05-07T21:46:58;7.93;;;4.37;;
18072;SDS011;9161;47.348;9.648;2023-05-07T21:52:00;7.80;;;4.57;;
18072;SDS011;9161;47.348;9.648;2023-05-07T21:57:04;4.07;;;2.63;;
18072;SDS011;9161;47.348;9.648;2023-05-07T22:02:09;7.50;;;2.80;;
18072;SDS011;9161;47.348;9.648;2023-05-07T22:07:15;4.33;;;2.47;;
18072;SDS011;9161;47.348;9.648;2023-05-07T22:12:24;3.47;;;2.33;;
18072;SDS011;9161;47.348;9.648;2023-05-07T22:17:30;3.30;;;2.77;;
18072;SDS011;9161;47.348;9.648;2023-05-07T22:22:44;5.77;;;2.50;;
18072;SDS011;9161;47.348;9.648;2023-05-07T22:27:53;8.80;;;2.30;;
18072;SDS011;9161;47.348;9.648;2023-05-07T22:32:58;2.97;;;2.00;;
18072;SDS011;9161;47.348;9.648;2023-05-07T22:38:11;4.57;;;2.00;;
18072;SDS011;9161;47.348;9.648;2023-05-07T22:43:15;3.00;;;1.80;;
18072;SDS011;9161;47.348;9.648;2023-05-07T22:48:17;4.37;;;1.80;;
18072;SDS011;9161;47.348;9.648;2023-05-07T22:53:20;2.13;;;1.47;;
18072;SDS011;9161;47.348;9.648;2023-05-07T22:58:23;2.57;;;1.60;;
18072;SDS011;9161;47.348;9.648;2023-05-07T23:03:26;3.20;;;1.60;;
18072;SDS011;9161;47.348;9.648;2023-05-07T23:08:29;3.87;;;1.73;;
18072;SDS011;9161;47.348;9.648;2023-05-07T23:13:32;2.47;;;1.60;;
18072;SDS011;9161;47.348;9.648;2023-05-07T23:18:34;2.77;;;2.00;;
18072;SDS011;9161;47.348;9.648;2023-05-07T23:23:36;4.67;;;1.77;;
18072;SDS011;9161;47.348;9.648;2023-05-07T23:28:39;2.90;;;2.13;;
18072;SDS011;9161;47.348;9.648;2023-05-07T23:33:41;4.07;;;2.10;;
18072;SDS011;9161;47.348;9.648;2023-05-07T23:38:43;3.70;;;2.27;;
18072;SDS011;9161;47.348;9.648;2023-05-07T23:43:46;6.67;;;2.40;;
18072;SDS011;9161;47.348;9.648;2023-05-07T23:48:48;1.83;;;1.50;;
18072;SDS011;9161;47.348;9.648;2023-05-07T23:53:50;4.23;;;1.40;;
18072;SDS011;9161;47.348;9.648;2023-05-07T23:58:54;2.17;;;1.40;;
